Mechanicsvlle, Virginia
Current Conditions -  °F | °C
As of 7:54 PM on Tuesday 25 Nov 2014 (Local Time) from KRIC Reporting Station
Overcast Overcast  
Wind Chill: 53°   Ceiling: 15000
Heat Index: 53°   Visibility: 10mi
Dew Point: 41°   Wind: 0mph
Humidity: 64%   Direction: NA
Pressure: 30.11"   Gusts: NA
Location:  37.634°N, 77.2585°W
Report Text: KRIC 260054Z 00000KT 10SM FEW050 BKN150 OVC250 12/05 A3011 RMK AO2 SLP201 T01170050
Loading
Personal Weather Stations






























Interactive Weather Map New forecast layout! Learn more

10-Day Weather Forecast

Advertisements
Track Severe Weather on mobile